sensor_id;sensor_type;location;lat;lon;timestamp;pressure;altitude;pressure_sealevel;temperature;humidity
83559;BME280;73527;47.882;7.718;2023-11-19T00:01:51;98604.03;;;15.05;67.67
83559;BME280;73527;47.882;7.718;2023-11-19T00:04:16;98623.19;;;14.97;68.03
83559;BME280;73527;47.882;7.718;2023-11-19T00:06:42;98636.72;;;14.84;68.12
83559;BME280;73527;47.882;7.718;2023-11-19T00:09:07;98626.97;;;14.77;68.99
83559;BME280;73527;47.882;7.718;2023-11-19T00:11:33;98621.09;;;14.93;68.42
83559;BME280;73527;47.882;7.718;2023-11-19T00:13:58;98626.50;;;14.99;68.08
83559;BME280;73527;47.882;7.718;2023-11-19T00:16:23;98621.50;;;14.96;67.85
83559;BME280;73527;47.882;7.718;2023-11-19T00:18:49;98613.22;;;14.98;67.50
83559;BME280;73527;47.882;7.718;2023-11-19T00:21:15;98604.41;;;15.16;66.85
83559;BME280;73527;47.882;7.718;2023-11-19T00:23:40;98612.47;;;15.29;66.89
83559;BME280;73527;47.882;7.718;2023-11-19T00:26:05;98607.81;;;14.98;68.18
83559;BME280;73527;47.882;7.718;2023-11-19T00:28:32;98610.44;;;15.18;67.23
83559;BME280;73527;47.882;7.718;2023-11-19T00:30:58;98613.19;;;15.11;67.23
83559;BME280;73527;47.882;7.718;2023-11-19T00:33:23;98623.41;;;14.89;67.65
83559;BME280;73527;47.882;7.718;2023-11-19T00:35:49;98615.50;;;14.94;67.91
83559;BME280;73527;47.882;7.718;2023-11-19T00:38:14;98603.25;;;14.98;67.66
83559;BME280;73527;47.882;7.718;2023-11-19T00:40:40;98573.22;;;14.75;67.69
83559;BME280;73527;47.882;7.718;2023-11-19T00:43:06;98597.00;;;15.04;67.66
83559;BME280;73527;47.882;7.718;2023-11-19T00:45:32;98600.28;;;15.13;67.50
83559;BME280;73527;47.882;7.718;2023-11-19T00:47:58;98605.19;;;15.29;67.46
83559;BME280;73527;47.882;7.718;2023-11-19T00:50:25;98564.66;;;14.91;68.05
83559;BME280;73527;47.882;7.718;2023-11-19T00:52:50;98584.31;;;15.11;67.64
83559;BME280;73527;47.882;7.718;2023-11-19T00:55:16;98551.94;;;15.05;67.21
83559;BME280;73527;47.882;7.718;2023-11-19T00:57:42;98571.25;;;15.02;68.08
83559;BME280;73527;47.882;7.718;2023-11-19T01:00:07;98568.31;;;15.10;67.42
83559;BME280;73527;47.882;7.718;2023-11-19T01:02:43;98567.09;;;14.99;68.35
83559;BME280;73527;47.882;7.718;2023-11-19T01:05:08;98574.88;;;14.76;68.63
83559;BME280;73527;47.882;7.718;2023-11-19T01:07:34;98546.13;;;15.01;68.39
83559;BME280;73527;47.882;7.718;2023-11-19T01:09:59;98538.84;;;15.02;68.15
83559;BME280;73527;47.882;7.718;2023-11-19T01:12:24;98515.00;;;14.92;67.93
83559;BME280;73527;47.882;7.718;2023-11-19T01:14:49;98530.34;;;15.05;68.44
83559;BME280;73527;47.882;7.718;2023-11-19T01:17:15;98540.09;;;14.99;68.69
83559;BME280;73527;47.882;7.718;2023-11-19T01:19:41;98531.19;;;14.99;68.73
83559;BME280;73527;47.882;7.718;2023-11-19T01:22:06;98529.59;;;15.23;68.14
83559;BME280;73527;47.882;7.718;2023-11-19T01:24:32;98522.97;;;15.19;67.87
83559;BME280;73527;47.882;7.718;2023-11-19T01:26:57;98526.66;;;15.31;68.12
83559;BME280;73527;47.882;7.718;2023-11-19T01:29:24;98515.47;;;15.27;68.28
83559;BME280;73527;47.882;7.718;2023-11-19T01:31:50;98510.31;;;15.57;67.28
83559;BME280;73527;47.882;7.718;2023-11-19T01:34:16;98530.91;;;15.45;67.42
83559;BME280;73527;47.882;7.718;2023-11-19T01:36:41;98535.50;;;15.51;67.52
83559;BME280;73527;47.882;7.718;2023-11-19T01:39:07;98537.28;;;15.63;66.92
83559;BME280;73527;47.882;7.718;2023-11-19T01:41:36;98532.13;;;15.87;66.20
83559;BME280;73527;47.882;7.718;2023-11-19T01:44:01;98508.38;;;15.64;66.25
83559;BME280;73527;47.882;7.718;2023-11-19T01:46:27;98528.75;;;15.67;66.51
83559;BME280;73527;47.882;7.718;2023-11-19T01:48:53;98504.47;;;15.60;66.55
83559;BME280;73527;47.882;7.718;2023-11-19T01:51:19;98510.38;;;15.75;65.98
83559;BME280;73527;47.882;7.718;2023-11-19T01:53:47;98551.41;;;15.90;65.81
83559;BME280;73527;47.882;7.718;2023-11-19T01:56:14;98549.38;;;16.10;64.96
83559;BME280;73527;47.882;7.718;2023-11-19T01:58:40;98554.91;;;16.40;64.89
83559;BME280;73527;47.882;7.718;2023-11-19T02:01:07;98570.53;;;15.64;68.37
83559;BME280;73527;47.882;7.718;2023-11-19T02:03:32;98580.47;;;15.26;70.39
83559;BME280;73527;47.882;7.718;2023-11-19T02:05:59;98575.44;;;14.91;70.88
83559;BME280;73527;47.882;7.718;2023-11-19T02:08:25;98592.78;;;14.12;73.63
83559;BME280;73527;47.882;7.718;2023-11-19T02:10:51;98581.16;;;14.11;74.65
83559;BME280;73527;47.882;7.718;2023-11-19T02:13:17;98564.81;;;13.99;74.60
83559;BME280;73527;47.882;7.718;2023-11-19T02:15:43;98559.41;;;14.19;75.31
83559;BME280;73527;47.882;7.718;2023-11-19T02:20:45;98570.38;;;14.11;76.08
83559;BME280;73527;47.882;7.718;2023-11-19T02:23:11;98576.41;;;14.06;76.23
83559;BME280;73527;47.882;7.718;2023-11-19T02:25:37;98571.22;;;14.38;75.80
83559;BME280;73527;47.882;7.718;2023-11-19T02:28:03;98582.22;;;14.03;77.02
83559;BME280;73527;47.882;7.718;2023-11-19T02:30:30;98576.19;;;13.88;77.92
83559;BME280;73527;47.882;7.718;2023-11-19T02:33:00;98580.75;;;13.88;77.89
83559;BME280;73527;47.882;7.718;2023-11-19T02:35:31;98587.19;;;14.13;76.54
83559;BME280;73527;47.882;7.718;2023-11-19T02:37:57;98583.66;;;14.26;76.87
83559;BME280;73527;47.882;7.718;2023-11-19T02:40:23;98550.06;;;13.89;77.15
83559;BME280;73527;47.882;7.718;2023-11-19T02:42:54;98584.50;;;14.00;77.87
83559;BME280;73527;47.882;7.718;2023-11-19T02:45:22;98571.44;;;14.10;77.17
83559;BME280;73527;47.882;7.718;2023-11-19T02:47:48;98587.81;;;13.95;78.28
83559;BME280;73527;47.882;7.718;2023-11-19T02:50:13;98589.88;;;13.87;78.80
83559;BME280;73527;47.882;7.718;2023-11-19T02:52:42;98598.78;;;13.74;79.27
83559;BME280;73527;47.882;7.718;2023-11-19T02:55:08;98598.38;;;13.77;78.93
83559;BME280;73527;47.882;7.718;2023-11-19T02:57:43;98595.88;;;13.82;78.48
83559;BME280;73527;47.882;7.718;2023-11-19T03:00:17;98589.22;;;13.65;79.74
83559;BME280;73527;47.882;7.718;2023-11-19T03:02:44;98607.66;;;13.62;79.65
83559;BME280;73527;47.882;7.718;2023-11-19T03:05:19;98599.81;;;13.73;78.61
83559;BME280;73527;47.882;7.718;2023-11-19T03:07:44;98598.78;;;13.74;78.67
83559;BME280;73527;47.882;7.718;2023-11-19T03:10:10;98589.59;;;13.49;79.44
83559;BME280;73527;47.882;7.718;2023-11-19T03:12:40;98599.13;;;13.45;79.70
83559;BME280;73527;47.882;7.718;2023-11-19T03:15:06;98573.84;;;13.39;79.77
83559;BME280;73527;47.882;7.718;2023-11-19T03:17:32;98589.00;;;13.53;79.81
83559;BME280;73527;47.882;7.718;2023-11-19T03:20:12;98597.09;;;13.60;79.83
83559;BME280;73527;47.882;7.718;2023-11-19T03:22:42;98586.28;;;13.47;80.27
83559;BME280;73527;47.882;7.718;2023-11-19T03:25:07;98570.56;;;13.44;80.31
83559;BME280;73527;47.882;7.718;2023-11-19T03:27:37;98575.31;;;13.55;79.79
83559;BME280;73527;47.882;7.718;2023-11-19T03:30:07;98574.69;;;13.46;80.96
83559;BME280;73527;47.882;7.718;2023-11-19T03:32:34;98580.31;;;13.71;80.15
83559;BME280;73527;47.882;7.718;2023-11-19T03:35:00;98584.22;;;13.55;80.63
83559;BME280;73527;47.882;7.718;2023-11-19T03:37:26;98581.53;;;13.49;80.65
83559;BME280;73527;47.882;7.718;2023-11-19T03:39:53;98612.59;;;13.58;80.26
83559;BME280;73527;47.882;7.718;2023-11-19T03:42:19;98585.28;;;13.54;80.34
83559;BME280;73527;47.882;7.718;2023-11-19T03:44:46;98581.75;;;13.54;80.48
83559;BME280;73527;47.882;7.718;2023-11-19T03:47:11;98594.81;;;13.64;80.57
83559;BME280;73527;47.882;7.718;2023-11-19T03:49:36;98583.78;;;13.45;81.12
83559;BME280;73527;47.882;7.718;2023-11-19T03:52:02;98583.78;;;13.39;81.66
83559;BME280;73527;47.882;7.718;2023-11-19T03:54:27;98547.94;;;13.38;80.91
83559;BME280;73527;47.882;7.718;2023-11-19T03:56:53;98559.81;;;13.64;81.17
83559;BME280;73527;47.882;7.718;2023-11-19T03:59:18;98597.69;;;13.55;81.44
83559;BME280;73527;47.882;7.718;2023-11-19T04:01:46;98600.78;;;13.52;80.85
83559;BME280;73527;47.882;7.718;2023-11-19T04:04:11;98592.13;;;13.64;80.69
83559;BME280;73527;47.882;7.718;2023-11-19T04:06:36;98564.53;;;13.55;80.29
83559;BME280;73527;47.882;7.718;2023-11-19T04:09:02;98602.31;;;13.88;80.32
83559;BME280;73527;47.882;7.718;2023-11-19T04:11:27;98636.50;;;14.00;79.25
83559;BME280;73527;47.882;7.718;2023-11-19T04:13:53;98626.38;;;13.96;79.74
83559;BME280;73527;47.882;7.718;2023-11-19T04:16:18;98611.47;;;14.06;79.05
83559;BME280;73527;47.882;7.718;2023-11-19T04:18:43;98605.84;;;14.08;79.24
83559;BME280;73527;47.882;7.718;2023-11-19T04:21:08;98597.13;;;14.32;78.81
83559;BME280;73527;47.882;7.718;2023-11-19T04:23:34;98595.69;;;14.30;78.60
83559;BME280;73527;47.882;7.718;2023-11-19T04:26:02;98586.97;;;14.28;79.18
83559;BME280;73527;47.882;7.718;2023-11-19T04:28:29;98601.28;;;14.28;78.82
83559;BME280;73527;47.882;7.718;2023-11-19T04:30:54;98601.50;;;14.40;78.68
83559;BME280;73527;47.882;7.718;2023-11-19T04:33:19;98612.09;;;14.41;78.88
83559;BME280;73527;47.882;7.718;2023-11-19T04:35:45;98615.78;;;14.21;79.79
83559;BME280;73527;47.882;7.718;2023-11-19T04:38:10;98615.78;;;14.60;78.60
83559;BME280;73527;47.882;7.718;2023-11-19T04:40:36;98602.94;;;14.23;79.80
83559;BME280;73527;47.882;7.718;2023-11-19T04:43:01;98592.59;;;14.13;79.84
83559;BME280;73527;47.882;7.718;2023-11-19T04:45:26;98609.59;;;14.40;78.96
83559;BME280;73527;47.882;7.718;2023-11-19T04:47:51;98606.69;;;14.54;78.51
83559;BME280;73527;47.882;7.718;2023-11-19T04:50:17;98617.88;;;14.51;78.32
83559;BME280;73527;47.882;7.718;2023-11-19T04:52:43;98601.41;;;14.79;78.00
83559;BME280;73527;47.882;7.718;2023-11-19T04:55:10;98606.47;;;14.63;78.50
83559;BME280;73527;47.882;7.718;2023-11-19T04:57:40;98623.06;;;14.40;78.35
83559;BME280;73527;47.882;7.718;2023-11-19T05:00:05;98614.56;;;14.63;78.21
83559;BME280;73527;47.882;7.718;2023-11-19T05:02:32;98593.41;;;14.33;79.41
83559;BME280;73527;47.882;7.718;2023-11-19T05:05:01;98599.22;;;14.37;79.37
83559;BME280;73527;47.882;7.718;2023-11-19T05:07:29;98589.91;;;14.46;78.88
83559;BME280;73527;47.882;7.718;2023-11-19T05:09:54;98595.28;;;14.46;79.00
83559;BME280;73527;47.882;7.718;2023-11-19T05:12:19;98609.19;;;14.43;78.73
83559;BME280;73527;47.882;7.718;2023-11-19T05:14:45;98600.47;;;14.41;78.88
83559;BME280;73527;47.882;7.718;2023-11-19T05:17:15;98608.56;;;14.41;79.01
83559;BME280;73527;47.882;7.718;2023-11-19T05:19:40;98624.53;;;14.49;79.00
83559;BME280;73527;47.882;7.718;2023-11-19T05:22:05;98611.88;;;14.63;78.17
83559;BME280;73527;47.882;7.718;2023-11-19T05:24:31;98625.31;;;14.69;78.29
83559;BME280;73527;47.882;7.718;2023-11-19T05:26:56;98622.00;;;14.60;78.29
83559;BME280;73527;47.882;7.718;2023-11-19T05:29:23;98614.50;;;14.69;78.04
83559;BME280;73527;47.882;7.718;2023-11-19T05:31:49;98613.09;;;14.60;78.58
83559;BME280;73527;47.882;7.718;2023-11-19T05:34:14;98593.00;;;14.49;78.98
83559;BME280;73527;47.882;7.718;2023-11-19T05:36:40;98600.66;;;14.66;78.41
83559;BME280;73527;47.882;7.718;2023-11-19T05:39:05;98600.47;;;14.41;79.27
83559;BME280;73527;47.882;7.718;2023-11-19T05:41:30;98596.91;;;14.53;78.92
83559;BME280;73527;47.882;7.718;2023-11-19T05:43:56;98598.78;;;14.40;79.37
83559;BME280;73527;47.882;7.718;2023-11-19T05:46:21;98595.00;;;14.74;77.81
83559;BME280;73527;47.882;7.718;2023-11-19T05:48:47;98598.38;;;14.56;79.30
83559;BME280;73527;47.882;7.718;2023-11-19T05:51:13;98595.00;;;14.80;77.90
83559;BME280;73527;47.882;7.718;2023-11-19T05:53:40;98593.19;;;14.48;79.14
83559;BME280;73527;47.882;7.718;2023-11-19T05:56:05;98605.84;;;14.54;78.97
83559;BME280;73527;47.882;7.718;2023-11-19T05:58:34;98600.66;;;14.59;79.06
83559;BME280;73527;47.882;7.718;2023-11-19T06:01:01;98599.34;;;14.81;78.50
83559;BME280;73527;47.882;7.718;2023-11-19T06:03:27;98577.97;;;14.73;77.97
83559;BME280;73527;47.882;7.718;2023-11-19T06:05:52;98616.84;;;14.59;78.79
83559;BME280;73527;47.882;7.718;2023-11-19T06:08:19;98614.75;;;14.61;78.84
83559;BME280;73527;47.882;7.718;2023-11-19T06:10:46;98611.25;;;14.54;79.47
83559;BME280;73527;47.882;7.718;2023-11-19T06:13:12;98614.13;;;14.66;78.94
83559;BME280;73527;47.882;7.718;2023-11-19T06:15:37;98611.47;;;14.52;79.01
83559;BME280;73527;47.882;7.718;2023-11-19T06:18:03;98611.63;;;14.71;78.90
83559;BME280;73527;47.882;7.718;2023-11-19T06:20:29;98607.88;;;14.78;78.49
83559;BME280;73527;47.882;7.718;2023-11-19T06:22:56;98597.66;;;14.87;78.04
83559;BME280;73527;47.882;7.718;2023-11-19T06:25:22;98593.09;;;14.94;77.98
83559;BME280;73527;47.882;7.718;2023-11-19T06:27:49;98604.34;;;14.78;78.73
83559;BME280;73527;47.882;7.718;2023-11-19T06:30:15;98595.00;;;14.80;78.60
83559;BME280;73527;47.882;7.718;2023-11-19T06:32:41;98595.81;;;14.87;78.25
83559;BME280;73527;47.882;7.718;2023-11-19T06:35:07;98601.59;;;14.91;78.50
83559;BME280;73527;47.882;7.718;2023-11-19T06:37:33;98597.72;;;14.74;78.90
83559;BME280;73527;47.882;7.718;2023-11-19T06:39:59;98593.91;;;14.94;78.08
83559;BME280;73527;47.882;7.718;2023-11-19T06:42:24;98595.22;;;14.79;78.65
83559;BME280;73527;47.882;7.718;2023-11-19T06:44:49;98589.41;;;14.75;78.82
83559;BME280;73527;47.882;7.718;2023-11-19T06:47:15;98597.94;;;14.72;79.17
83559;BME280;73527;47.882;7.718;2023-11-19T06:49:40;98589.63;;;14.67;79.60
83559;BME280;73527;47.882;7.718;2023-11-19T06:52:05;98567.00;;;14.68;79.37
83559;BME280;73527;47.882;7.718;2023-11-19T06:54:31;98599.56;;;14.73;79.25
83559;BME280;73527;47.882;7.718;2023-11-19T06:56:56;98592.53;;;14.72;78.88
83559;BME280;73527;47.882;7.718;2023-11-19T06:59:23;98608.72;;;14.72;79.32
83559;BME280;73527;47.882;7.718;2023-11-19T07:01:48;98606.63;;;14.81;78.75
83559;BME280;73527;47.882;7.718;2023-11-19T07:04:14;98613.00;;;14.99;78.40
83559;BME280;73527;47.882;7.718;2023-11-19T07:06:39;98624.47;;;14.88;78.83
83559;BME280;73527;47.882;7.718;2023-11-19T07:09:08;98608.84;;;14.97;77.76
83559;BME280;73527;47.882;7.718;2023-11-19T07:11:38;98629.25;;;14.73;79.38
83559;BME280;73527;47.882;7.718;2023-11-19T07:14:05;98615.38;;;14.63;79.30
83559;BME280;73527;47.882;7.718;2023-11-19T07:16:32;98602.69;;;14.77;78.76
83559;BME280;73527;47.882;7.718;2023-11-19T07:19:00;98622.97;;;14.92;78.49
83559;BME280;73527;47.882;7.718;2023-11-19T07:21:25;98631.88;;;14.99;78.22
83559;BME280;73527;47.882;7.718;2023-11-19T07:23:50;98630.84;;;15.00;77.93
83559;BME280;73527;47.882;7.718;2023-11-19T07:26:17;98634.00;;;14.91;78.50
83559;BME280;73527;47.882;7.718;2023-11-19T07:28:42;98626.50;;;14.99;78.00
83559;BME280;73527;47.882;7.718;2023-11-19T07:31:09;98635.66;;;14.98;78.12
83559;BME280;73527;47.882;7.718;2023-11-19T07:33:35;98621.47;;;15.09;77.37
83559;BME280;73527;47.882;7.718;2023-11-19T07:36:00;98624.22;;;14.96;77.85
83559;BME280;73527;47.882;7.718;2023-11-19T07:38:26;98623.63;;;14.94;77.72
83559;BME280;73527;47.882;7.718;2023-11-19T07:40:51;98652.50;;;14.81;78.59
83559;BME280;73527;47.882;7.718;2023-11-19T07:43:16;98649.53;;;14.95;78.14
83559;BME280;73527;47.882;7.718;2023-11-19T07:45:42;98662.66;;;14.85;78.71
83559;BME280;73527;47.882;7.718;2023-11-19T07:48:09;98652.28;;;14.82;78.76
83559;BME280;73527;47.882;7.718;2023-11-19T07:50:34;98650.13;;;15.10;77.89
83559;BME280;73527;47.882;7.718;2023-11-19T07:52:59;98631.63;;;15.21;77.84
83559;BME280;73527;47.882;7.718;2023-11-19T07:55:25;98642.66;;;15.12;78.20
83559;BME280;73527;47.882;7.718;2023-11-19T07:57:51;98654.53;;;15.05;78.40
83559;BME280;73527;47.882;7.718;2023-11-19T08:00:17;98650.97;;;15.11;78.20
83559;BME280;73527;47.882;7.718;2023-11-19T08:02:42;98641.41;;;15.08;78.09
83559;BME280;73527;47.882;7.718;2023-11-19T08:05:08;98666.09;;;15.19;77.72
83559;BME280;73527;47.882;7.718;2023-11-19T08:07:33;98656.06;;;15.32;77.88
83559;BME280;73527;47.882;7.718;2023-11-19T08:09:59;98653.38;;;15.32;77.46
83559;BME280;73527;47.882;7.718;2023-11-19T08:12:25;98675.47;;;15.09;78.20
83559;BME280;73527;47.882;7.718;2023-11-19T08:14:51;98672.13;;;15.21;77.79
83559;BME280;73527;47.882;7.718;2023-11-19T08:17:16;98671.34;;;15.00;78.23
83559;BME280;73527;47.882;7.718;2023-11-19T08:19:41;98666.91;;;15.19;78.08
83559;BME280;73527;47.882;7.718;2023-11-19T08:22:06;98678.34;;;15.28;77.58
83559;BME280;73527;47.882;7.718;2023-11-19T08:24:32;98677.34;;;15.02;78.36
83559;BME280;73527;47.882;7.718;2023-11-19T08:26:57;98679.38;;;15.27;78.05
83559;BME280;73527;47.882;7.718;2023-11-19T08:29:22;98669.16;;;15.35;77.23
83559;BME280;73527;47.882;7.718;2023-11-19T08:31:48;98655.63;;;15.42;77.06
83559;BME280;73527;47.882;7.718;2023-11-19T08:34:13;98649.63;;;15.40;77.40
83559;BME280;73527;47.882;7.718;2023-11-19T08:36:38;98660.47;;;15.27;77.68
83559;BME280;73527;47.882;7.718;2023-11-19T08:39:04;98643.41;;;15.33;77.52
83559;BME280;73527;47.882;7.718;2023-11-19T08:41:29;98627.16;;;15.39;76.37
83559;BME280;73527;47.882;7.718;2023-11-19T08:43:55;98646.78;;;15.15;77.76
83559;BME280;73527;47.882;7.718;2023-11-19T08:46:20;98626.84;;;15.16;77.23
83559;BME280;73527;47.882;7.718;2023-11-19T08:48:45;98657.16;;;15.25;77.18
83559;BME280;73527;47.882;7.718;2023-11-19T08:51:12;98632.13;;;15.42;76.19
83559;BME280;73527;47.882;7.718;2023-11-19T08:53:37;98649.63;;;15.40;76.48
83559;BME280;73527;47.882;7.718;2023-11-19T08:56:03;98648.03;;;15.70;75.76
83559;BME280;73527;47.882;7.718;2023-11-19T08:58:28;98641.13;;;15.30;76.05
83559;BME280;73527;47.882;7.718;2023-11-19T09:00:54;98657.50;;;15.35;76.48
83559;BME280;73527;47.882;7.718;2023-11-19T09:03:19;98662.06;;;15.54;76.35
83559;BME280;73527;47.882;7.718;2023-11-19T09:05:45;98652.41;;;15.64;75.51
83559;BME280;73527;47.882;7.718;2023-11-19T09:08:11;98647.31;;;15.50;76.06
83559;BME280;73527;47.882;7.718;2023-11-19T09:10:37;98635.09;;;15.34;76.44
83559;BME280;73527;47.882;7.718;2023-11-19T09:13:02;98640.28;;;15.80;75.16
83559;BME280;73527;47.882;7.718;2023-11-19T09:15:29;98625.38;;;15.27;76.19
83559;BME280;73527;47.882;7.718;2023-11-19T09:17:54;98668.22;;;15.61;75.76
83559;BME280;73527;47.882;7.718;2023-11-19T09:20:19;98662.84;;;15.54;76.34
83559;BME280;73527;47.882;7.718;2023-11-19T09:22:45;98670.75;;;15.62;75.34
83559;BME280;73527;47.882;7.718;2023-11-19T09:25:11;98675.38;;;15.49;75.84
83559;BME280;73527;47.882;7.718;2023-11-19T09:27:36;98686.56;;;15.46;75.66
83559;BME280;73527;47.882;7.718;2023-11-19T09:30:02;98663.16;;;15.78;74.23
83559;BME280;73527;47.882;7.718;2023-11-19T09:32:29;98665.38;;;15.56;75.70
83559;BME280;73527;47.882;7.718;2023-11-19T09:34:54;98665.00;;;15.84;74.92
83559;BME280;73527;47.882;7.718;2023-11-19T09:37:19;98674.88;;;15.65;75.76
83559;BME280;73527;47.882;7.718;2023-11-19T09:39:45;98665.75;;;15.59;76.61
83559;BME280;73527;47.882;7.718;2023-11-19T09:42:10;98678.41;;;15.66;76.37
83559;BME280;73527;47.882;7.718;2023-11-19T09:44:39;98663.53;;;15.50;76.97
83559;BME280;73527;47.882;7.718;2023-11-19T09:47:07;98613.97;;;15.18;76.27
83559;BME280;73527;47.882;7.718;2023-11-19T09:49:35;98669.03;;;15.68;75.95
83559;BME280;73527;47.882;7.718;2023-11-19T09:52:01;98654.50;;;16.00;74.89
83559;BME280;73527;47.882;7.718;2023-11-19T09:54:26;98658.16;;;15.81;75.41
83559;BME280;73527;47.882;7.718;2023-11-19T09:56:52;98667.19;;;15.62;76.34
83559;BME280;73527;47.882;7.718;2023-11-19T09:59:18;98676.03;;;15.82;76.28
83559;BME280;73527;47.882;7.718;2023-11-19T10:01:45;98653.22;;;15.72;75.92
83559;BME280;73527;47.882;7.718;2023-11-19T10:04:14;98677.09;;;15.75;75.88
83559;BME280;73527;47.882;7.718;2023-11-19T10:06:41;98669.78;;;16.20;74.64
83559;BME280;73527;47.882;7.718;2023-11-19T10:09:07;98671.59;;;15.56;76.26
83559;BME280;73527;47.882;7.718;2023-11-19T10:11:32;98648.81;;;15.77;75.58
83559;BME280;73527;47.882;7.718;2023-11-19T10:13:59;98656.81;;;15.59;76.39
83559;BME280;73527;47.882;7.718;2023-11-19T10:16:29;98649.75;;;15.96;75.47
83559;BME280;73527;47.882;7.718;2023-11-19T10:18:55;98642.84;;;15.69;75.35
83559;BME280;73527;47.882;7.718;2023-11-19T10:21:21;98651.59;;;16.02;74.59
83559;BME280;73527;47.882;7.718;2023-11-19T10:23:48;98655.59;;;15.93;75.09
83559;BME280;73527;47.882;7.718;2023-11-19T10:26:15;98613.47;;;15.79;74.90
83559;BME280;73527;47.882;7.718;2023-11-19T10:28:40;98638.97;;;15.89;74.74
83559;BME280;73527;47.882;7.718;2023-11-19T10:31:09;98603.59;;;15.91;74.11
83559;BME280;73527;47.882;7.718;2023-11-19T10:33:34;98637.63;;;16.05;74.06
83559;BME280;73527;47.882;7.718;2023-11-19T10:36:00;98651.16;;;16.05;74.03
83559;BME280;73527;47.882;7.718;2023-11-19T10:38:25;98628.09;;;16.27;73.48
83559;BME280;73527;47.882;7.718;2023-11-19T10:40:52;98616.50;;;16.45;72.84
83559;BME280;73527;47.882;7.718;2023-11-19T10:43:21;98618.28;;;16.33;73.06
83559;BME280;73527;47.882;7.718;2023-11-19T10:45:48;98611.59;;;15.79;74.54
83559;BME280;73527;47.882;7.718;2023-11-19T10:48:13;98636.72;;;16.42;72.66
83559;BME280;73527;47.882;7.718;2023-11-19T10:50:40;98629.84;;;16.40;72.79
83559;BME280;73527;47.882;7.718;2023-11-19T10:53:09;98625.16;;;16.29;73.15
83559;BME280;73527;47.882;7.718;2023-11-19T10:55:36;98608.38;;;16.20;73.98
83559;BME280;73527;47.882;7.718;2023-11-19T10:58:08;98606.22;;;16.29;73.36
83559;BME280;73527;47.882;7.718;2023-11-19T11:00:50;98577.53;;;16.28;73.68
83559;BME280;73527;47.882;7.718;2023-11-19T11:03:18;98596.38;;;16.59;72.38
83559;BME280;73527;47.882;7.718;2023-11-19T11:05:48;98595.06;;;16.68;72.19
83559;BME280;73527;47.882;7.718;2023-11-19T11:08:14;98597.47;;;16.76;71.44
83559;BME280;73527;47.882;7.718;2023-11-19T11:10:44;98578.00;;;16.67;71.48
83559;BME280;73527;47.882;7.718;2023-11-19T11:13:10;98580.53;;;16.62;71.48
83559;BME280;73527;47.882;7.718;2023-11-19T11:15:37;98577.75;;;17.05;69.96
83559;BME280;73527;47.882;7.718;2023-11-19T11:18:02;98585.28;;;17.03;70.43
83559;BME280;73527;47.882;7.718;2023-11-19T11:20:30;98599.94;;;16.59;71.46
83559;BME280;73527;47.882;7.718;2023-11-19T11:26:00;98575.50;;;17.02;71.00
83559;BME280;73527;47.882;7.718;2023-11-19T11:28:56;98594.19;;;17.10;70.25
83559;BME280;73527;47.882;7.718;2023-11-19T11:36:30;98583.34;;;17.10;69.91
83559;BME280;73527;47.882;7.718;2023-11-19T11:38:58;98575.50;;;17.02;70.16
83559;BME280;73527;47.882;7.718;2023-11-19T11:41:25;98590.56;;;16.62;71.88
83559;BME280;73527;47.882;7.718;2023-11-19T11:43:51;98579.88;;;16.67;72.14
83559;BME280;73527;47.882;7.718;2023-11-19T11:49:11;98573.16;;;16.70;71.94
83559;BME280;73527;47.882;7.718;2023-11-19T11:54:09;98594.97;;;16.32;73.53
83559;BME280;73527;47.882;7.718;2023-11-19T11:56:38;98574.56;;;16.54;72.99
83559;BME280;73527;47.882;7.718;2023-11-19T11:59:07;98551.03;;;16.11;74.09
83559;BME280;73527;47.882;7.718;2023-11-19T12:01:32;98565.59;;;16.35;73.76
83559;BME280;73527;47.882;7.718;2023-11-19T12:03:58;98553.63;;;16.43;73.41
83559;BME280;73527;47.882;7.718;2023-11-19T12:06:23;98553.63;;;16.43;74.08
83559;BME280;73527;47.882;7.718;2023-11-19T12:08:49;98551.50;;;16.27;73.76
83559;BME280;73527;47.882;7.718;2023-11-19T12:11:14;98564.16;;;16.57;72.78
83559;BME280;73527;47.882;7.718;2023-11-19T12:13:55;98564.47;;;16.43;72.90
83559;BME280;73527;47.882;7.718;2023-11-19T12:16:23;98565.41;;;16.30;73.88
83559;BME280;73527;47.882;7.718;2023-11-19T12:18:48;98552.28;;;16.34;73.80
83559;BME280;73527;47.882;7.718;2023-11-19T12:21:30;98557.53;;;16.04;75.77
83559;BME280;73527;47.882;7.718;2023-11-19T12:23:58;98570.56;;;15.89;76.54
83559;BME280;73527;47.882;7.718;2023-11-19T12:26:33;98580.09;;;15.91;77.30
83559;BME280;73527;47.882;7.718;2023-11-19T12:29:00;98565.22;;;15.82;77.09
83559;BME280;73527;47.882;7.718;2023-11-19T12:31:26;98548.69;;;15.66;77.97
83559;BME280;73527;47.882;7.718;2023-11-19T12:33:51;98578.59;;;15.71;77.96
83559;BME280;73527;47.882;7.718;2023-11-19T12:36:17;98578.09;;;15.87;77.38
83559;BME280;73527;47.882;7.718;2023-11-19T12:38:42;98572.47;;;16.13;76.62
83559;BME280;73527;47.882;7.718;2023-11-19T12:41:10;98564.56;;;16.11;75.95
83559;BME280;73527;47.882;7.718;2023-11-19T12:43:37;98573.16;;;16.27;75.25
83559;BME280;73527;47.882;7.718;2023-11-19T12:46:23;98556.28;;;16.49;73.50
83559;BME280;73527;47.882;7.718;2023-11-19T12:48:49;98575.94;;;16.63;72.89
83559;BME280;73527;47.882;7.718;2023-11-19T12:51:15;98557.81;;;17.18;71.14
83559;BME280;73527;47.882;7.718;2023-11-19T12:53:50;98566.19;;;16.62;71.98
83559;BME280;73527;47.882;7.718;2023-11-19T12:56:16;98566.03;;;16.93;71.75
83559;BME280;73527;47.882;7.718;2023-11-19T12:58:41;98564.38;;;16.74;71.84
83559;BME280;73527;47.882;7.718;2023-11-19T13:01:08;98560.78;;;16.80;72.13
83559;BME280;73527;47.882;7.718;2023-11-19T13:03:37;98551.03;;;17.09;71.06
83559;BME280;73527;47.882;7.718;2023-11-19T13:06:08;98543.88;;;17.33;69.88
83559;BME280;73527;47.882;7.718;2023-11-19T13:08:46;98534.34;;;17.72;68.97
83559;BME280;73527;47.882;7.718;2023-11-19T13:11:14;98541.97;;;17.03;69.69
83559;BME280;73527;47.882;7.718;2023-11-19T13:13:55;98563.41;;;17.35;69.45